Date,TemperatureHighF,TemperatureAvgF,TemperatureLowF,DewpointHighF,DewpointAvgF,DewpointLowF,HumidityHigh,HumidityAvg,HumidityLow,PressureMaxIn,PressureMinIn,WindSpeedMaxMPH,WindSpeedAvgMPH,GustSpeedMaxMPH,PrecipitationSumIn
2013-1-1,54.1,40.2,29.7,50.4,34.3,8.3,93,80,41,28.94,28.85,6,1,6,0.00
2013-1-2,39.2,27.8,21.7,27.0,10.2,0.9,92,50,24,29.06,28.94,6,0,6,0.00
2013-1-3,38.8,29.0,21.0,22.3,8.2,-0.6,79,45,21,29.14,29.00,13,1,13,0.00
2013-1-4,38.5,31.8,24.6,14.6,6.8,2.2,60,35,24,29.20,29.12,15,3,15,0.00
2013-1-5,47.3,34.2,23.7,36.2,13.7,4.5,83,48,19,29.17,29.03,8,1,8,0.00
2013-1-6,41.2,35.4,28.6,30.0,12.8,4.1,76,40,31,29.17,28.91,14,3,14,0.00
2013-1-7,46.8,31.6,22.8,28.2,11.1,2.1,80,46,19,29.26,29.06,6,1,6,0.00
2013-1-8,55.4,38.5,27.1,41.9,20.8,8.2,84,56,18,29.14,29.03,10,1,10,0.00
2013-1-9,56.1,45.1,34.3,45.7,28.9,21.1,83,56,27,29.35,29.06,9,1,9,0.00
2013-1-10,59.9,48.3,38.8,54.6,41.1,21.5,85,77,43,29.35,28.97,4,0,4,0.00
2013-1-11,79.7,62.6,48.7,73.7,51.3,25.6,92,72,23,28.97,28.79,11,2,11,0.00
2013-1-12,88.7,75.4,54.0,81.7,69.7,51.1,90,83,71,28.97,28.82,11,2,11,0.00
2013-1-13,86.0,71.7,43.7,79.1,64.4,39.7,89,79,45,29.03,28.76,17,4,17,0.00
2013-1-14,43.3,29.6,25.3,39.7,15.2,4.9,88,57,33,29.26,29.03,11,2,11,0.00
2013-1-15,36.3,30.0,25.0,34.0,14.0,7.0,92,53,33,29.14,28.91,8,1,8,0.00
2013-1-16,42.4,38.8,35.1,40.0,36.1,31.3,93,90,86,28.94,28.82,6,1,6,0.00
2013-1-17,44.1,35.4,28.9,37.6,23.3,8.2,94,66,28,29.17,28.94,6,1,6,0.00
2013-1-18,42.1,36.2,27.9,26.9,4.7,1.0,86,27,21,29.32,29.09,13,3,13,0.00
2013-1-19,56.1,46.0,36.9,12.5,7.6,2.3,24,21,17,29.09,28.85,17,6,17,0.00
2013-1-20,47.1,36.8,24.4,12.0,2.4,-7.0,30,23,19,29.09,28.85,13,3,13,0.00
2013-1-21,28.2,22.9,14.2,0.0,-6.0,-16.1,36,27,23,29.03,28.91,18,4,18,0.00
2013-1-22,21.7,14.1,8.1,-8.8,-15.7,-21.2,26,24,23,29.14,29.03,14,3,14,0.00
2013-1-23,27.5,18.8,10.0,-5.3,-11.0,-17.3,29,25,23,29.12,28.88,8,1,8,0.00
2013-1-24,30.0,21.2,14.5,-3.3,-9.3,-14.1,26,25,23,29.32,28.88,15,1,15,0.00
2013-1-25,27.0,22.8,19.9,9.9,-2.7,-10.2,54,33,25,29.20,28.85,7,1,7,0.00
2013-1-26,39.2,27.7,20.1,19.8,6.5,-3.7,79,44,21,29.23,28.94,9,1,9,0.00
2013-1-27,45.0,31.0,18.3,40.5,9.8,2.8,85,45,20,29.20,29.03,6,1,6,0.00
2013-1-28,73.4,59.8,45.1,68.1,50.4,23.3,86,73,36,29.03,28.97,13,4,13,0.00
2013-1-29,65.5,61.1,55.8,58.4,39.0,34.7,86,45,33,28.97,28.64,14,5,14,0.00
2013-1-30,73.4,57.9,33.6,68.3,43.0,6.9,87,61,32,28.64,28.32,25,6,25,0.05
2013-1-31,33.6,28.4,21.6,19.9,3.8,-4.6,70,36,25,28.85,28.52,20,6,20,0.00
2013-2-1,23.0,13.2,6.6,9.8,-11.5,-17.0,60,32,25,29.20,28.85,15,3,15,0.00
2013-2-2,33.6,24.2,10.2,15.3,5.5,-12.6,59,45,30,29.12,28.82,11,2,11,0.00
2013-2-3,28.9,24.6,15.1,8.8,2.5,-2.6,55,38,31,28.97,28.76,12,2,12,0.00
2013-2-4,47.3,29.3,12.6,42.7,14.5,1.0,84,57,23,28.94,28.67,12,1,12,0.41
2013-2-5,57.7,47.7,38.5,53.3,33.2,14.3,85,60,29,28.88,28.70,8,2,8,0.04
2013-2-6,47.3,36.1,29.1,19.0,13.2,7.9,60,40,22,29.12,28.88,9,1,9,0.00
2013-2-7,66.6,45.2,31.6,21.4,17.1,11.5,59,36,17,29.03,28.76,7,1,7,0.00
2013-2-8,55.0,39.3,32.9,50.6,18.2,6.4,85,43,21,29.14,28.73,15,4,15,0.09
2013-2-9,54.1,33.6,22.3,11.4,5.4,-1.1,52,32,18,29.23,29.06,8,1,8,0.00
2013-2-10,58.3,42.9,27.7,36.6,14.1,0.9,57,33,17,29.06,28.73,13,3,13,0.04
2013-2-11,59.2,49.6,34.2,51.1,19.2,2.9,78,33,19,28.97,28.73,18,5,18,0.00
2013-2-12,52.9,37.6,28.0,34.5,13.3,4.1,84,41,18,29.00,28.79,8,1,8,0.00
2013-2-13,40.1,34.4,29.8,31.4,17.4,8.7,83,51,32,28.79,28.61,8,1,8,0.04
2013-2-14,56.8,42.7,34.2,29.4,19.0,7.0,73,43,17,28.88,28.76,12,3,15,0.00
2013-2-15,43.3,35.0,24.8,21.3,11.7,2.8,60,39,23,29.00,28.88,14,2,14,0.00
2013-2-16,32.4,25.5,20.3,21.2,2.4,-9.9,77,40,23,29.00,28.88,13,3,13,0.00
2013-2-17,38.5,23.5,14.2,2.0,-3.9,-9.9,51,30,21,29.12,28.91,10,1,10,0.00
2013-2-18,60.8,41.8,18.5,16.2,4.9,-8.2,45,22,16,29.00,28.70,18,4,18,0.00
2013-2-19,46.6,35.5,25.9,30.5,8.8,-6.0,63,34,22,28.97,28.61,19,6,19,0.16
2013-2-20,33.4,25.4,19.6,-0.7,-6.1,-9.9,35,24,23,29.14,28.94,14,3,14,0.00
2013-2-21,39.7,26.4,14.7,12.2,0.8,-3.8,56,35,21,29.12,28.88,7,1,7,0.04
2013-2-22,63.9,43.6,29.8,58.9,30.9,12.1,85,63,37,28.88,28.73,10,1,10,0.05
2013-2-23,50.5,39.6,30.9,42.8,15.2,3.6,83,40,19,28.88,28.82,9,2,9,0.00
2013-2-24,48.6,32.9,25.3,12.6,7.8,2.8,55,36,19,29.14,28.82,9,1,9,0.00
2013-2-25,57.0,36.5,23.9,20.9,8.4,0.5,73,35,17,29.14,28.79,8,1,8,0.00
2013-2-26,66.0,47.8,36.7,61.0,32.3,1.0,84,59,21,28.79,28.32,15,2,15,0.54
2013-2-27,44.8,39.5,35.1,34.9,24.3,13.4,75,55,36,28.61,28.47,14,4,14,0.00
2013-2-28,41.0,35.6,33.1,34.5,20.2,15.2,79,54,45,28.82,28.58,11,3,11,0.04
2013-3-1,48.2,42.8,36.1,43.3,35.1,19.0,83,75,47,28.88,28.79,6,1,6,0.08
2013-3-2,35.2,28.7,27.1,19.4,9.2,3.1,52,44,33,28.91,28.85,8,2,8,0.00
2013-3-3,33.1,28.0,21.0,9.9,3.1,-3.6,58,35,23,29.06,28.88,12,2,12,0.00
2013-3-4,45.0,32.6,20.5,24.9,7.9,2.4,72,40,20,29.00,28.85,7,1,7,0.04
2013-3-5,51.6,41.1,36.7,47.3,21.4,3.6,85,50,24,28.85,28.47,17,1,17,0.25
2013-3-6,47.1,36.0,30.4,42.2,22.8,13.7,84,59,46,29.09,28.55,14,4,14,0.00
2013-3-7,37.4,34.2,32.0,24.9,18.4,11.0,68,53,35,29.23,29.09,6,1,6,0.16
2013-3-8,70.3,37.3,28.8,39.1,20.8,7.9,89,58,19,29.44,29.20,6,0,6,0.00
2013-3-9,64.8,43.2,25.9,37.1,29.4,24.2,98,64,31,29.38,29.09,8,1,8,0.00
2013-3-10,68.2,59.1,43.3,41.4,31.1,28.3,76,36,25,29.12,28.91,11,3,11,0.00
2013-3-11,57.0,48.2,38.1,54.3,43.5,28.9,98,85,48,28.91,28.73,13,2,13,0.92
2013-3-12,48.6,39.2,34.5,29.7,24.3,18.6,71,56,39,28.97,28.82,12,3,12,0.71
2013-3-13,39.4,31.7,27.7,32.1,19.6,11.2,96,62,43,29.17,28.91,17,5,17,0.00
2013-3-14,30.2,30.2,30.2,15.1,15.1,15.1,53,53,53,29.14,29.14,5,5,6,0.00
2013-3-15,55.9,39.5,30.2,38.7,24.1,15.1,78,55,41,29.14,28.82,5,3,6,0.00
2013-3-16,67.8,51.9,40.1,49.1,40.3,32.5,98,68,41,29.06,28.70,13,3,14,0.00
2013-3-17,41.5,35.3,33.1,33.8,32.3,29.2,98,89,68,29.17,29.00,5,0,5,0.46
2013-3-18,35.8,35.4,34.2,35.3,34.9,33.7,98,98,98,29.03,28.76,18,0,18,0.79
2013-3-19,35.8,35.8,35.8,35.3,35.3,35.3,98,98,98,28.79,28.79,0,0,0,0.79
2013-3-20,35.8,35.8,35.8,35.3,35.3,35.3,98,98,98,28.79,28.79,0,0,0,0.79
2013-3-21,35.8,35.8,35.8,35.3,35.3,35.3,98,98,98,28.79,28.79,0,0,0,0.79
2013-3-22,50.4,39.4,34.0,35.3,24.9,13.5,98,63,28,29.12,28.79,6,1,6,0.66
2013-3-23,58.1,43.1,34.9,24.0,19.8,16.4,57,40,26,29.09,28.88,7,0,7,0.00
2013-3-24,40.5,37.1,34.5,36.5,28.1,18.0,98,74,42,28.88,28.35,6,0,6,0.00
2013-3-25,38.3,33.3,30.4,37.8,30.0,25.8,98,88,75,28.85,28.38,15,5,15,0.00
2013-3-26,40.6,35.3,32.5,30.4,26.0,18.8,91,71,43,29.12,28.82,13,4,13,0.00
2013-3-27,43.9,36.5,28.6,28.3,21.6,19.0,76,56,40,29.20,29.09,13,2,13,0.00
2013-3-28,55.0,38.1,25.0,28.3,23.6,18.3,97,60,31,29.32,29.14,11,1,11,0.00
2013-3-29,59.5,42.1,27.0,36.2,26.4,21.7,98,61,26,29.38,29.26,8,1,8,0.00
2013-3-30,64.8,46.0,29.7,42.1,32.0,27.5,98,65,29,29.26,28.97,8,1,8,0.00
2013-3-31,59.4,48.9,39.7,47.8,42.3,35.3,98,81,42,28.97,28.79,11,1,11,0.00
2013-4-1,50.0,41.9,30.7,42.6,25.5,15.0,98,56,30,29.06,28.76,12,3,13,0.00
2013-4-2,49.8,35.8,23.0,24.3,17.3,12.3,89,51,27,29.20,29.03,12,2,12,0.00
2013-4-3,54.5,37.1,23.2,20.9,16.5,13.1,80,46,26,29.35,29.12,10,1,10,0.00
2013-4-4,56.1,42.7,33.3,29.1,19.3,13.1,78,40,27,29.23,28.91,6,0,6,0.00
2013-4-5,66.6,46.1,29.3,37.2,27.9,22.8,98,58,24,29.17,28.85,11,2,11,0.00
2013-4-6,72.1,51.9,32.9,35.8,29.3,20.2,91,47,24,29.23,29.00,10,2,10,0.00
2013-4-7,73.6,64.2,57.9,51.2,39.0,31.3,71,40,34,29.09,28.91,13,4,13,0.00
2013-4-8,72.7,62.0,50.9,51.0,47.3,40.9,95,62,36,29.06,28.94,13,2,13,0.00
2013-4-9,80.4,60.8,49.8,52.0,49.9,47.3,98,73,32,29.12,29.00,14,2,14,0.00
2013-4-12,51.8,46.1,37.6,35.5,31.6,29.3,92,59,42,29.00,28.85,10,2,10,0.00
2013-4-13,62.4,46.2,34.7,36.7,31.6,26.1,98,62,30,29.14,29.00,20,2,20,0.00
2013-4-14,74.1,54.9,36.3,47.1,37.9,34.0,98,60,27,29.09,28.97,9,1,9,0.00
2013-4-15,70.2,61.7,53.2,52.2,47.2,42.4,95,60,45,29.09,28.97,8,2,8,0.00
2013-4-16,82.2,65.3,52.7,63.4,55.9,51.0,98,75,42,29.23,29.00,11,2,11,0.00
2013-4-17,82.4,65.9,59.0,64.7,59.3,55.6,98,82,43,29.23,29.06,9,2,9,0.00
2013-4-18,82.8,72.9,62.2,58.8,52.3,44.2,85,53,30,29.06,28.76,18,5,20,0.00
2013-4-19,74.7,50.5,40.3,62.8,36.4,24.0,97,60,38,29.03,28.55,19,5,19,0.58
2013-4-20,57.9,44.2,34.9,32.1,27.0,22.5,88,54,29,29.38,29.03,13,2,13,0.00
2013-4-21,63.3,47.2,33.6,32.7,26.6,23.2,74,47,26,29.53,29.35,8,1,8,0.00
2013-4-22,74.3,54.4,35.4,44.1,34.2,25.6,85,51,25,29.35,29.20,7,1,7,0.00
2013-4-23,70.3,58.4,43.7,50.6,44.3,39.2,98,64,40,29.20,28.94,10,2,10,0.00
2013-4-24,65.7,52.5,37.8,57.0,42.2,29.8,98,70,45,29.17,28.85,18,4,18,0.66
2013-4-25,61.2,46.9,34.7,37.2,32.6,26.7,98,63,32,29.32,29.14,12,2,12,0.00
2013-4-26,66.6,50.1,34.7,43.1,33.1,26.6,98,59,25,29.44,29.29,7,0,7,0.00
2013-4-27,61.9,54.3,44.8,52.9,42.7,34.8,90,66,46,29.32,29.06,9,0,9,0.00
2013-4-28,67.1,59.3,54.3,59.2,54.3,50.0,98,85,60,29.06,28.88,10,1,10,0.25
2013-4-29,62.1,57.1,54.0,56.5,53.7,50.8,98,89,69,29.00,28.91,5,0,5,0.00
2013-4-30,82.0,71.3,57.6,56.0,51.0,45.6,91,54,30,29.20,29.14,6,1,6,0.00
2013-5-1,87.3,68.0,52.0,61.0,52.4,46.5,98,65,28,29.32,29.09,5,0,5,0.00
2013-5-2,76.5,66.4,55.0,56.0,50.0,46.1,89,58,36,29.26,29.17,6,0,6,0.00
2013-5-3,78.1,66.6,56.1,56.7,48.7,35.2,94,57,32,29.17,29.03,8,1,8,0.00
2013-5-4,74.7,64.1,56.7,50.2,40.4,33.6,79,44,31,29.06,29.00,8,1,8,0.00
2013-5-5,56.7,52.4,50.0,54.0,51.1,49.3,98,96,78,29.03,28.88,8,0,8,2.41
2013-5-6,52.0,52.0,52.0,51.4,51.4,51.4,98,98,98,28.97,28.85,0,0,0,0.41
2013-5-7,52.0,52.0,52.0,51.4,51.4,51.4,98,98,98,29.03,28.91,0,0,0,0.04
2013-5-8,52.0,52.0,52.0,51.4,51.4,51.4,98,98,98,29.06,28.94,0,0,0,0.00
2013-5-19,0.0,0.0,0.0,0.0,0.0,0.0,0,0,100,29.09,29.03,0,0,0,0.00
2013-5-20,0.0,0.0,0.0,0.0,0.0,0.0,0,0,100,29.12,29.06,0,0,0,0.00
2013-5-21,0.0,0.0,0.0,0.0,0.0,0.0,0,0,100,29.06,28.97,0,0,0,0.00
2013-5-22,0.0,0.0,0.0,0.0,0.0,0.0,0,0,100,28.97,28.88,0,0,0,0.00
2013-5-23,0.0,0.0,0.0,0.0,0.0,0.0,0,0,100,29.09,28.88,0,0,0,0.00
2013-5-24,0.0,0.0,0.0,0.0,0.0,0.0,0,0,100,29.32,29.09,0,0,0,0.00
2013-5-25,79.2,17.7,0.0,46.7,12.4,0.0,64,15,36,29.41,29.26,6,0,6,0.00
2013-5-26,69.4,61.9,56.1,50.8,46.9,41.2,74,59,42,29.35,29.23,4,0,4,0.04
2013-5-27,81.3,68.6,55.9,58.0,50.3,46.0,80,55,31,29.26,29.12,9,1,9,0.09
2013-5-28,81.7,75.1,68.5,60.3,54.6,50.6,65,50,36,29.14,29.09,12,2,12,0.09
2013-5-29,84.0,76.0,70.0,62.1,56.5,51.8,69,52,39,29.23,29.12,9,2,9,0.09
2013-5-30,84.7,75.7,66.9,64.1,60.9,58.1,80,61,44,29.23,29.17,8,1,8,0.09
2013-5-31,80.2,72.8,68.5,68.9,62.7,58.3,95,72,53,29.20,29.06,12,1,12,0.37
2013-6-1,79.5,72.9,68.9,68.3,64.9,62.0,90,77,59,29.09,28.94,12,2,12,0.37
2013-6-2,75.7,70.6,66.7,66.3,59.4,54.2,86,69,49,29.03,28.94,7,1,7,0.37
2013-6-3,70.0,65.1,59.7,56.5,51.4,47.8,75,62,47,29.12,29.00,7,1,7,0.37
2013-6-4,74.7,62.6,54.7,49.9,47.9,44.1,77,60,36,29.17,29.09,4,0,4,0.37
2013-6-22,85.5,80.9,72.0,66.7,62.8,58.8,72,55,41,29.26,29.14,6,1,6,0.00
2013-6-23,85.5,75.7,68.5,66.8,62.9,57.0,84,66,38,29.23,29.12,7,1,7,0.00
2013-6-24,82.6,74.4,68.4,67.3,63.6,59.3,83,70,52,29.26,29.17,10,1,10,0.00
2013-6-25,87.3,78.3,69.6,71.1,67.3,64.4,89,71,48,29.20,29.09,6,1,6,0.00
2013-6-26,81.7,73.1,67.1,71.9,66.4,61.7,96,80,63,29.09,28.91,13,1,13,2.04
2013-6-27,82.4,73.6,67.5,72.4,68.6,66.0,98,86,59,28.91,28.85,7,1,7,0.00
2013-6-28,81.3,74.8,72.1,68.3,65.1,54.9,81,73,43,28.85,28.79,13,1,13,0.00
2013-7-2,77.2,71.3,0.0,66.6,63.9,0.0,84,75,68,29.09,29.06,2,0,2,0.00
2013-7-3,76.5,72.6,68.9,68.2,66.6,64.3,91,82,66,29.20,29.09,3,0,3,0.00
2013-7-4,72.9,69.3,66.7,69.4,66.4,62.1,98,91,72,29.23,29.14,4,0,4,1.28
2013-7-5,69.4,66.8,66.0,68.8,66.2,65.4,98,98,98,29.23,29.14,2,0,2,0.75
2013-7-8,83.7,75.5,68.2,70.0,67.3,61.3,93,77,47,29.26,29.17,6,1,6,0.00
2013-7-9,86.2,79.3,74.1,73.3,69.3,66.3,81,72,52,29.23,29.15,7,1,8,0.00
2013-7-10,86.4,77.6,72.3,73.6,70.1,63.8,94,78,58,29.15,29.00,11,1,11,0.00
2013-7-11,78.8,73.4,69.4,70.7,66.5,58.8,95,80,58,29.11,29.03,6,1,6,0.00
2013-7-12,77.7,70.2,61.7,59.2,56.2,53.3,77,62,45,29.17,29.09,4,0,4,0.08
2013-7-13,81.0,70.9,65.5,65.5,60.0,55.8,77,69,48,29.23,29.09,4,0,4,0.00
2013-7-14,86.2,76.1,68.7,71.8,67.1,62.7,84,74,57,29.29,29.17,5,0,6,0.00
2013-7-15,86.0,78.0,70.9,70.8,68.9,65.1,89,75,53,29.38,29.29,3,0,3,0.00
2013-7-16,88.7,80.5,71.6,72.0,65.5,56.6,88,64,35,29.38,29.32,3,0,3,0.00
2013-7-17,87.8,86.1,79.9,75.5,65.3,56.6,77,52,35,29.38,29.23,4,0,4,0.00
2013-7-18,88.9,82.2,75.7,73.6,71.2,66.2,86,71,49,29.29,29.12,3,0,3,0.00
2013-7-19,86.9,80.6,75.9,72.9,70.4,63.5,84,72,54,29.14,29.00,8,1,8,0.00
2013-7-20,87.1,78.3,74.5,71.4,68.1,62.4,84,72,48,29.06,28.94,9,1,9,0.00
2013-7-21,83.1,75.6,68.7,74.3,68.6,64.3,98,80,54,29.09,28.97,6,0,6,1.21
2013-7-22,77.4,72.9,70.2,71.8,68.8,64.0,97,87,71,29.09,28.91,7,0,7,0.45
2013-7-23,82.6,76.1,70.7,72.2,69.9,66.9,94,82,61,29.00,28.94,7,1,7,0.00
2013-7-24,76.3,70.0,63.3,68.6,59.5,54.5,78,70,57,29.12,28.97,4,1,4,0.00
2013-7-25,75.2,67.5,60.1,57.0,54.5,51.8,78,64,46,29.20,29.09,4,0,4,0.00
2013-7-26,77.2,68.6,59.7,61.3,56.4,52.5,83,66,45,29.17,29.06,5,0,5,0.09
2013-7-27,73.4,68.8,65.8,65.1,61.3,57.7,90,77,63,29.06,29.00,6,0,6,0.04
2013-7-28,71.4,64.6,57.7,57.7,48.8,42.0,75,58,39,29.17,29.00,8,1,8,0.00
2013-7-29,76.6,67.2,58.5,55.4,51.9,49.2,75,59,40,29.29,29.14,7,1,7,0.00
2013-7-30,75.6,68.6,61.9,61.2,57.2,53.7,81,68,52,29.29,29.20,3,0,3,0.00
2013-7-31,72.9,69.1,64.9,67.7,63.9,59.2,92,83,69,29.23,29.06,4,0,4,0.08
2013-8-1,78.8,72.0,66.7,67.0,62.2,52.8,91,73,42,29.12,29.03,8,1,8,0.00
2013-8-2,78.8,70.7,63.0,61.6,57.4,51.8,80,64,44,29.14,29.03,6,0,6,0.00
2013-8-3,79.5,74.0,69.8,66.4,62.7,59.3,74,68,61,29.09,29.03,5,0,5,0.00
2013-8-4,76.8,69.2,62.1,61.3,54.7,47.1,78,61,40,29.20,29.09,6,1,6,0.00
2013-8-5,77.5,68.1,59.5,56.9,53.1,49.4,79,60,39,29.20,29.06,3,0,3,0.00
2013-8-6,80.1,72.4,66.4,66.3,59.9,54.0,76,65,56,29.09,29.03,3,0,3,0.00
2013-8-7,83.3,76.1,70.0,71.5,67.4,63.7,93,75,60,29.06,29.00,6,1,6,0.00
2013-8-8,83.3,77.2,73.0,71.6,69.1,66.2,89,77,58,29.09,29.00,6,1,6,0.00
2013-8-9,78.1,74.2,70.0,77.3,72.8,65.7,98,96,74,29.09,29.00,8,0,8,1.62
2013-8-10,77.0,73.6,70.5,74.3,71.8,69.9,98,94,86,29.20,29.09,2,0,2,0.29
2013-8-11,81.7,73.7,71.4,73.2,70.3,65.0,96,90,57,29.17,29.09,6,0,6,0.00
2013-8-12,79.9,73.0,67.6,70.9,66.6,63.5,91,81,62,29.14,28.97,5,0,5,0.00
2013-8-13,76.5,72.2,65.7,68.8,62.8,49.6,92,74,50,29.14,28.94,8,1,8,0.00
2013-8-14,71.6,63.3,56.1,50.2,47.5,42.1,73,57,38,29.20,29.12,5,1,5,0.00
2013-8-15,73.0,63.2,54.1,54.0,49.5,45.3,78,62,46,29.20,29.14,5,0,5,0.00
2013-8-16,76.5,66.1,57.2,55.8,51.7,47.8,79,61,41,29.20,29.12,4,0,4,0.00
2013-8-17,79.9,69.0,60.4,60.4,55.6,51.2,77,63,45,29.23,29.17,3,0,3,0.00
2013-8-18,78.6,70.0,62.6,62.3,59.1,54.8,85,69,48,29.23,29.17,4,0,4,0.00
2013-8-19,82.2,72.2,64.9,66.6,60.3,55.1,91,68,42,29.23,29.17,4,0,4,0.00
2013-8-20,82.6,73.4,65.7,66.0,61.9,58.9,85,68,47,29.26,29.17,3,0,3,0.00
2013-8-21,80.8,74.3,68.9,70.7,64.7,61.1,85,72,59,29.26,29.17,6,1,6,0.04
2013-8-22,83.3,75.8,69.3,69.3,65.1,61.2,91,70,49,29.23,29.17,8,1,8,0.05
2013-8-23,82.9,74.6,70.3,65.6,63.8,60.7,82,70,51,29.23,29.12,5,0,5,0.00
2013-8-24,83.3,73.0,64.4,64.5,58.7,53.7,80,63,37,29.35,29.23,4,0,4,0.00
2013-8-25,83.8,71.9,62.1,61.8,56.5,50.4,80,61,32,29.38,29.32,4,0,4,0.00
2013-8-26,85.6,75.3,66.4,66.6,62.1,56.8,82,65,42,29.35,29.23,6,1,6,0.00
2013-8-27,85.5,78.4,72.3,70.6,67.5,63.7,87,70,55,29.23,29.14,6,1,6,0.00
2013-8-28,91.0,80.8,73.8,70.9,67.1,61.2,89,66,38,29.14,29.06,13,1,13,0.00
2013-8-29,84.4,78.0,72.9,68.5,66.1,62.8,80,67,49,29.17,29.09,4,0,4,0.00
2013-8-30,87.1,76.7,68.9,69.3,64.0,60.1,86,66,41,29.14,28.91,5,1,5,0.00
2013-8-31,87.8,75.4,68.2,72.3,67.2,62.6,94,76,59,29.00,28.88,14,1,14,0.53
2013-9-1,81.5,70.8,68.4,68.7,65.8,64.7,90,85,59,28.91,28.85,5,0,5,0.00
2013-9-2,83.1,75.5,71.6,70.3,68.1,63.6,90,79,56,28.97,28.85,6,1,6,0.00
2013-9-12,78.3,74.3,70.3,67.7,64.1,58.5,81,71,55,29.14,29.00,8,1,8,0.00
2013-9-13,70.3,63.6,59.0,59.3,48.5,39.6,71,59,40,29.12,29.03,10,2,10,0.05
2013-9-14,69.1,61.2,56.5,43.6,42.4,40.3,61,51,36,29.17,29.12,1,0,1,0.05
2013-9-15,77.0,57.6,50.4,54.6,44.5,41.0,76,63,37,29.20,29.09,9,0,9,0.00
2013-9-16,70.0,65.0,59.4,57.6,54.1,48.8,80,68,55,29.29,29.12,4,0,4,0.04
2013-9-17,75.6,63.1,53.2,53.2,48.5,45.2,81,61,35,29.29,29.20,3,0,4,0.00
2013-9-18,72.0,65.9,59.2,64.0,57.7,48.3,84,75,63,29.20,29.14,5,0,5,0.00
2013-9-19,76.1,69.8,66.0,66.7,63.7,61.1,93,81,66,29.17,29.06,5,1,5,0.08
2013-9-20,83.7,73.4,68.2,68.4,63.0,57.8,96,72,43,29.09,28.88,8,1,8,0.95
2013-9-21,69.6,64.4,58.1,69.0,59.4,46.2,98,86,45,28.91,28.76,10,1,10,1.95
2013-9-22,67.5,58.7,51.4,50.8,46.1,43.3,79,64,42,29.06,28.91,4,0,4,0.00
2013-9-23,70.3,58.1,48.9,47.5,43.8,0.0,76,60,39,29.12,29.00,4,0,4,0.00
2013-9-24,74.8,61.1,50.2,55.2,48.2,40.8,77,63,45,29.09,28.97,4,0,4,0.00
2013-9-25,73.9,64.8,57.9,56.3,52.3,46.6,79,65,48,28.97,28.91,6,0,6,0.00
2013-9-26,75.4,62.7,52.7,55.3,49.8,44.8,79,64,41,29.12,28.94,3,0,3,0.00
2013-9-27,77.0,64.5,55.8,58.5,50.5,44.1,83,63,32,29.17,29.09,4,0,4,0.00
2013-9-28,77.9,62.5,54.0,56.0,49.8,45.9,82,65,37,29.20,29.11,6,0,6,0.00
2013-9-29,67.1,61.4,59.9,56.7,53.4,51.9,80,75,64,29.12,29.09,6,0,6,0.00
2013-10-11,77.9,73.0,58.3,53.1,50.4,46.1,69,46,36,29.12,29.06,3,0,3,0.00
2013-10-12,76.5,60.9,53.4,57.0,49.7,45.7,84,68,39,29.17,29.03,4,0,4,0.00
2013-10-13,73.9,63.0,55.6,59.1,53.2,47.9,86,71,53,29.32,29.14,6,0,6,0.00
2013-10-14,73.8,59.5,49.3,49.7,45.3,39.9,72,60,39,29.29,29.20,4,0,4,0.00
2013-10-15,72.9,64.5,56.7,59.6,54.6,47.0,87,71,55,29.20,29.00,6,1,6,0.00
2013-10-16,65.5,62.8,54.9,60.5,56.8,48.0,91,81,69,29.03,28.94,6,1,6,0.04
2013-10-17,56.7,52.0,48.0,48.5,44.2,40.8,80,75,59,28.97,28.88,10,1,10,0.13
2013-10-18,66.7,51.2,46.2,46.0,40.9,36.3,86,70,35,29.03,28.94,8,0,8,0.00
2013-10-19,51.1,49.1,43.3,47.2,41.1,36.6,87,74,69,29.03,28.85,10,0,10,0.20
2013-10-20,59.7,43.9,41.7,38.1,35.8,33.9,77,73,38,29.12,29.00,8,1,8,0.00
2013-10-25,53.6,43.2,35.4,26.5,23.6,19.1,59,46,32,29.47,29.29,6,1,6,0.00
2013-10-26,58.8,43.8,34.3,31.5,24.9,19.6,62,48,35,29.32,29.03,10,2,10,0.00
2013-10-27,65.7,48.2,37.4,36.1,29.9,25.8,71,51,31,29.14,29.06,6,1,6,0.00
2013-10-28,70.3,48.5,36.9,40.6,31.1,26.4,71,53,30,29.23,29.06,5,0,5,0.00
2013-10-29,58.1,48.3,38.1,47.0,37.8,27.2,77,67,56,29.26,29.14,3,0,3,0.00
2013-10-30,64.9,58.9,53.6,60.9,54.5,46.2,94,85,76,29.14,29.03,4,0,4,0.17
2013-10-31,67.5,64.1,62.2,63.4,55.0,49.8,96,73,59,29.03,28.44,18,5,18,0.00
2013-11-1,65.8,57.6,50.5,59.6,44.7,36.0,97,65,36,28.79,28.50,13,2,13,0.00
2013-11-2,58.3,50.2,43.5,40.8,35.0,29.0,74,57,39,29.12,28.76,11,2,11,0.00
2013-11-3,57.6,45.0,38.8,37.5,31.2,27.5,75,59,38,29.35,29.12,4,0,4,0.00
2013-11-4,60.3,48.6,38.1,38.7,33.4,27.8,69,57,38,29.29,29.26,5,1,8,0.00
2013-11-5,62.1,53.6,46.8,38.8,35.9,31.9,63,52,35,29.35,29.17,4,0,4,0.00
2013-11-6,68.0,57.1,46.2,57.9,45.4,33.6,89,66,49,29.17,28.97,10,3,10,0.04
2013-11-7,53.4,44.4,39.4,44.3,31.0,22.3,81,61,36,29.20,29.00,10,2,10,0.00
2013-11-8,59.2,42.0,32.7,30.9,25.3,21.9,71,52,31,29.29,29.12,8,1,8,0.00
2013-11-9,66.2,48.9,34.7,29.4,25.4,21.8,62,42,25,29.23,29.09,12,2,12,0.00
2013-11-10,57.9,46.9,34.9,30.1,25.0,19.2,56,43,29,29.35,29.12,11,2,12,0.00
2013-11-11,61.3,46.4,33.3,33.1,24.7,19.3,63,45,24,29.23,29.06,11,2,11,0.00
2013-11-12,43.3,33.3,27.3,30.2,17.4,12.3,66,52,40,29.47,29.14,11,2,11,0.04
2013-11-13,47.8,32.0,23.4,19.3,14.3,10.7,75,49,29,29.47,29.26,8,1,8,0.00
2013-11-14,59.9,39.0,31.3,21.1,15.2,12.8,49,39,19,29.26,29.06,11,2,11,0.00
2013-11-15,54.0,45.7,35.4,36.0,24.0,13.5,66,43,29,29.17,29.03,11,1,11,0.04
2013-11-16,59.7,52.9,46.4,51.1,44.7,35.2,86,74,64,29.17,29.00,8,2,8,0.00
2013-11-17,65.7,59.8,49.5,64.7,57.4,47.2,98,92,68,29.00,28.61,30,4,30,0.00
2013-11-18,56.3,47.3,37.4,47.2,32.8,21.4,93,60,35,29.12,28.82,15,2,15,0.00
2013-11-19,47.1,37.0,31.1,27.9,22.3,19.0,64,55,44,29.23,29.09,6,0,6,0.00
2013-11-20,59.2,39.6,28.8,33.0,23.7,17.4,65,54,36,29.17,29.12,6,1,6,0.00
2013-11-21,57.7,47.7,36.7,43.1,32.9,25.2,74,57,47,29.23,29.12,5,1,5,0.00
2013-11-22,55.2,50.2,40.1,52.8,44.3,28.8,92,80,64,29.26,29.09,12,2,12,0.00
2013-11-23,42.4,34.8,24.3,28.8,19.2,6.9,73,54,34,29.38,29.20,15,3,15,0.00
2013-11-24,34.2,24.3,18.1,12.8,6.6,1.8,55,46,41,29.50,29.32,10,2,10,0.00
2013-11-25,42.1,32.0,21.0,24.5,12.9,6.6,66,46,31,29.32,29.06,12,2,12,0.00
2013-11-26,35.4,33.9,32.2,28.3,26.0,24.1,78,73,65,29.09,28.79,6,1,6,0.08
2013-11-27,32.5,28.0,21.6,25.5,16.9,8.7,75,63,54,29.12,28.79,10,3,10,0.00
2013-11-28,36.1,25.9,19.2,16.3,10.8,6.9,60,53,40,29.26,29.12,10,2,10,0.04
2013-11-29,44.8,30.0,20.8,23.2,16.0,10.2,68,56,39,29.44,29.26,4,0,4,0.05
2013-11-30,57.2,36.8,25.0,28.7,20.3,14.2,68,53,31,29.32,29.06,8,1,8,0.00
2013-12-1,52.9,45.2,40.3,29.9,25.0,20.2,54,45,40,29.06,28.85,8,2,8,0.00
2013-12-2,57.0,45.1,36.3,35.9,30.3,23.7,70,56,42,28.88,28.73,4,0,4,0.00
2013-12-3,54.3,45.6,35.4,43.2,35.9,25.9,86,69,63,28.79,28.70,4,0,4,0.00
2013-12-4,62.8,53.9,43.7,54.9,47.9,36.6,91,80,73,28.79,28.70,9,2,9,0.00
2013-12-5,63.5,52.0,34.3,60.0,49.3,33.8,98,91,73,29.06,28.76,10,3,10,0.83
2013-12-6,34.3,31.3,27.9,33.8,30.1,24.5,98,95,87,29.20,29.00,6,2,6,0.25
2013-12-7,31.1,26.8,22.1,24.5,21.2,14.8,87,79,71,29.38,29.20,4,1,4,0.00
2013-12-8,33.6,27.2,21.7,32.1,22.0,13.9,94,81,72,29.32,28.88,3,0,3,0.00
2013-12-9,33.8,31.8,26.6,32.8,28.5,18.7,96,88,67,29.09,28.85,10,2,10,0.03
2013-12-10,33.1,25.5,21.7,19.8,15.0,11.6,75,65,47,29.20,28.97,12,2,12,0.00
2013-12-11,37.8,25.9,17.1,20.8,13.6,8.4,82,60,41,29.32,29.14,13,2,13,0.00
2013-12-12,22.6,19.6,16.7,9.7,6.7,3.7,58,57,56,29.32,29.29,6,2,6,0.00